createdAt,value
2023-02-23T00:01:22.190Z,2.13
2023-02-23T00:04:29.828Z,2.12
2023-02-23T00:07:36.914Z,2.18
2023-02-23T00:10:44.633Z,2.20
2023-02-23T00:13:54.284Z,2.23
2023-02-23T00:17:01.477Z,2.22
2023-02-23T00:20:12.835Z,2.22
2023-02-23T00:23:19.409Z,2.29
2023-02-23T00:26:31.094Z,2.25
2023-02-23T00:29:40.694Z,2.18
2023-02-23T00:32:47.220Z,2.11
2023-02-23T00:35:55.631Z,2.03
2023-02-23T00:39:06.512Z,2.02
2023-02-23T00:42:13.779Z,2.02
2023-02-23T00:45:22.238Z,2.06
2023-02-23T00:48:28.891Z,2.03
2023-02-23T00:51:34.798Z,1.99
2023-02-23T00:54:41.416Z,1.95
2023-02-23T00:57:47.343Z,1.97
2023-02-23T01:00:57.203Z,2.01
2023-02-23T01:04:04.818Z,1.90
2023-02-23T01:07:13.117Z,1.89
2023-02-23T01:10:22.651Z,1.93
2023-02-23T01:13:29.923Z,1.96
2023-02-23T01:16:39.195Z,1.99
2023-02-23T01:19:45.764Z,1.96
2023-02-23T01:22:54.272Z,1.98
2023-02-23T01:26:01.730Z,1.96
2023-02-23T01:29:11.304Z,1.89
2023-02-23T01:32:20.555Z,1.86
2023-02-23T01:35:27.245Z,1.84
2023-02-23T01:38:33.760Z,1.77
2023-02-23T01:41:42.616Z,1.72
2023-02-23T01:45:27.233Z,1.63
2023-02-23T01:48:43.582Z,1.60
2023-02-23T01:51:58.873Z,1.63
2023-02-23T01:55:06.322Z,1.68
2023-02-23T01:58:21.909Z,1.67
2023-02-23T02:01:29.755Z,1.65
2023-02-23T02:04:46.865Z,1.61
2023-02-23T02:07:59.252Z,1.61
2023-02-23T02:11:25.975Z,1.59
2023-02-23T02:14:35.088Z,1.50
2023-02-23T02:18:03.393Z,1.50
2023-02-23T02:22:12.564Z,1.52
2023-02-23T02:25:43.984Z,1.39
2023-02-23T02:29:43.146Z,1.44
2023-02-23T02:33:46.916Z,1.54
2023-02-23T02:37:36.172Z,1.56
2023-02-23T02:40:56.065Z,1.57
2023-02-23T02:44:18.192Z,1.53
2023-02-23T02:47:36.704Z,1.48
2023-02-23T02:50:56.405Z,1.51
2023-02-23T02:54:17.167Z,1.52
2023-02-23T02:57:29.997Z,1.46
2023-02-23T03:00:55.184Z,1.45
2023-02-23T03:04:18.491Z,1.41
2023-02-23T03:07:46.925Z,1.37
2023-02-23T03:11:18.031Z,1.26
2023-02-23T03:14:59.517Z,1.26
2023-02-23T03:18:52.144Z,1.17
2023-02-23T03:22:23.255Z,1.14
2023-02-23T03:25:58.502Z,1.16
2023-02-23T03:29:32.128Z,1.09
2023-02-23T03:33:03.584Z,1.14
2023-02-23T03:36:34.651Z,1.10
2023-02-23T03:40:07.541Z,1.08
2023-02-23T03:43:34.867Z,1.03
2023-02-23T03:47:02.055Z,1.01
2023-02-23T03:50:30.779Z,1.00
2023-02-23T03:54:00.064Z,1.00
2023-02-23T03:57:28.601Z,0.99
2023-02-23T04:00:57.678Z,1.00
2023-02-23T04:04:23.355Z,1.06
2023-02-23T04:07:42.137Z,1.07
2023-02-23T04:11:13.902Z,1.01
2023-02-23T04:14:30.099Z,0.99
2023-02-23T04:17:37.823Z,0.97
2023-02-23T04:20:47.999Z,0.93
2023-02-23T04:23:54.890Z,0.91
2023-02-23T04:27:01.724Z,0.88
2023-02-23T04:30:11.685Z,0.83
2023-02-23T04:33:18.675Z,0.77
2023-02-23T04:36:28.003Z,0.72
2023-02-23T04:39:34.059Z,0.70
2023-02-23T04:42:43.062Z,0.68
2023-02-23T04:45:50.877Z,0.70
2023-02-23T04:48:57.417Z,0.70
2023-02-23T04:52:06.269Z,0.71
2023-02-23T04:55:21.641Z,0.69
2023-02-23T04:58:27.893Z,0.67
2023-02-23T05:01:34.502Z,0.71
2023-02-23T05:04:40.496Z,0.69
2023-02-23T05:07:50.041Z,0.65
2023-02-23T05:10:55.810Z,0.62
2023-02-23T05:14:02.430Z,0.54
2023-02-23T05:17:08.827Z,0.53
2023-02-23T05:20:17.898Z,0.52
2023-02-23T05:23:26.369Z,0.54
2023-02-23T05:26:33.003Z,0.56
2023-02-23T05:29:39.123Z,0.53
2023-02-23T05:32:45.779Z,0.50
2023-02-23T05:35:51.937Z,0.48
2023-02-23T05:39:01.220Z,0.46
2023-02-23T05:42:07.324Z,0.43
2023-02-23T05:45:14.791Z,0.44
2023-02-23T05:48:20.559Z,0.47
2023-02-23T05:51:27.263Z,0.46
2023-02-23T05:54:35.725Z,0.51
2023-02-23T05:57:43.990Z,0.53
2023-02-23T06:00:49.782Z,0.49
2023-02-23T06:03:56.923Z,0.48
2023-02-23T06:07:02.872Z,0.50
2023-02-23T06:10:14.591Z,0.50
2023-02-23T06:13:21.478Z,0.49
2023-02-23T06:16:28.269Z,0.46
2023-02-23T06:19:34.308Z,0.48
2023-02-23T06:22:42.499Z,0.50
2023-02-23T06:25:51.168Z,0.50
2023-02-23T06:28:58.261Z,0.55
2023-02-23T06:32:04.180Z,0.56
2023-02-23T06:35:12.042Z,0.60
2023-02-23T06:38:18.093Z,0.67
2023-02-23T06:41:28.977Z,0.78
2023-02-23T06:44:35.641Z,0.85
2023-02-23T06:47:42.918Z,0.87
2023-02-23T06:50:48.675Z,0.88
2023-02-23T06:53:55.793Z,1.01
2023-02-23T06:57:04.653Z,1.14
2023-02-23T07:00:15.278Z,1.22
2023-02-23T07:03:22.131Z,1.37
2023-02-23T07:06:28.860Z,1.40
2023-02-23T07:09:34.804Z,1.45
2023-02-23T07:12:43.971Z,1.42
2023-02-23T07:15:49.845Z,1.40
2023-02-23T07:18:56.833Z,1.45
2023-02-23T07:22:03.127Z,1.52
2023-02-23T07:25:11.688Z,1.57
2023-02-23T07:28:21.288Z,1.59
2023-02-23T07:31:28.620Z,1.68
2023-02-23T07:34:34.465Z,1.86
2023-02-23T07:37:42.367Z,1.85
2023-02-23T07:40:48.217Z,1.95
2023-02-23T07:43:57.552Z,2.04
2023-02-23T07:47:03.640Z,2.09
2023-02-23T07:50:12.856Z,2.11
2023-02-23T07:53:19.040Z,2.29
2023-02-23T07:56:26.117Z,2.62
2023-02-23T07:59:37.465Z,2.70
2023-02-23T08:02:44.897Z,2.73
2023-02-23T08:05:51.036Z,2.84
2023-02-23T08:08:57.599Z,2.85
2023-02-23T08:12:04.006Z,2.96
2023-02-23T08:15:14.598Z,3.07
2023-02-23T08:18:20.647Z,3.20
2023-02-23T08:21:29.423Z,3.15
2023-02-23T08:24:35.760Z,3.30
2023-02-23T08:27:42.579Z,3.45
2023-02-23T08:30:51.040Z,3.66
2023-02-23T08:33:57.932Z,3.82
2023-02-23T08:37:03.852Z,3.77
2023-02-23T08:40:15.723Z,3.87
2023-02-23T08:43:21.491Z,3.93
2023-02-23T08:46:31.676Z,3.90
2023-02-23T08:49:37.527Z,3.82
2023-02-23T08:52:45.363Z,3.74
2023-02-23T08:56:00.823Z,3.79
2023-02-23T08:59:08.028Z,3.98
2023-02-23T09:02:18.325Z,4.19
2023-02-23T09:05:24.950Z,4.44
2023-02-23T09:08:30.904Z,4.66
2023-02-23T09:11:37.604Z,4.85
2023-02-23T09:14:43.332Z,5.12
2023-02-23T09:17:54.756Z,5.27
2023-02-23T09:21:00.817Z,5.50
2023-02-23T09:24:08.272Z,5.67
2023-02-23T09:27:15.126Z,5.88
2023-02-23T09:30:24.718Z,6.13
2023-02-23T09:33:33.062Z,6.06
2023-02-23T09:36:40.280Z,6.05
2023-02-23T09:39:46.507Z,6.25
2023-02-23T09:43:06.482Z,6.48
2023-02-23T09:46:31.143Z,6.66
2023-02-23T09:49:48.006Z,6.95
2023-02-23T09:53:03.360Z,6.99
2023-02-23T09:56:21.569Z,7.10
2023-02-23T09:59:29.511Z,7.33
2023-02-23T10:02:58.390Z,7.53
2023-02-23T10:06:14.350Z,7.71
2023-02-23T10:09:45.924Z,7.86
2023-02-23T10:13:08.282Z,8.06
2023-02-23T10:16:27.822Z,8.47
2023-02-23T10:19:50.808Z,8.54
2023-02-23T10:23:12.141Z,8.77
2023-02-23T10:26:27.052Z,8.90
2023-02-23T10:29:42.754Z,8.97
2023-02-23T10:32:59.272Z,8.77
2023-02-23T10:36:22.258Z,9.01
2023-02-23T10:39:32.899Z,9.01
2023-02-23T10:42:39.541Z,9.18
2023-02-23T10:45:51.540Z,9.36
2023-02-23T10:49:00.703Z,9.44
2023-02-23T10:52:07.608Z,9.51
2023-02-23T10:55:28.824Z,9.57
2023-02-23T10:58:43.882Z,9.64
2023-02-23T11:02:01.333Z,9.61
2023-02-23T11:05:10.329Z,9.62
2023-02-23T11:08:32.205Z,9.50
2023-02-23T11:11:40.720Z,9.41
2023-02-23T11:14:48.308Z,9.47
2023-02-23T11:18:01.309Z,9.42
2023-02-23T11:21:15.645Z,9.37
2023-02-23T11:24:31.055Z,9.25
2023-02-23T11:27:40.358Z,9.28
2023-02-23T11:30:46.477Z,9.38
2023-02-23T11:33:57.511Z,9.45
2023-02-23T11:37:08.688Z,9.48
2023-02-23T11:40:28.116Z,9.33
2023-02-23T11:43:36.822Z,9.35
2023-02-23T11:46:46.811Z,9.40
2023-02-23T11:49:55.345Z,9.40
2023-02-23T11:53:09.737Z,9.42
2023-02-23T11:56:25.865Z,9.30
2023-02-23T11:59:41.466Z,9.26
2023-02-23T12:02:56.661Z,9.08
2023-02-23T12:06:03.237Z,9.16
2023-02-23T12:09:25.677Z,9.17
2023-02-23T12:12:43.033Z,9.26
2023-02-23T12:16:00.333Z,9.19
2023-02-23T12:19:25.882Z,9.33
2023-02-23T12:22:41.777Z,9.33
2023-02-23T12:25:57.764Z,9.38
2023-02-23T12:29:20.586Z,9.26
2023-02-23T12:32:43.791Z,9.23
2023-02-23T12:36:01.016Z,9.16
2023-02-23T12:39:24.594Z,9.14
2023-02-23T12:42:48.324Z,9.25
2023-02-23T12:46:02.653Z,9.38
2023-02-23T12:49:25.704Z,9.29
2023-02-23T12:52:40.222Z,9.14
2023-02-23T12:56:07.672Z,9.19
2023-02-23T12:59:59.823Z,9.15
2023-02-23T13:03:45.010Z,9.40
2023-02-23T13:07:09.458Z,9.63
2023-02-23T13:10:32.666Z,9.76
2023-02-23T13:13:51.981Z,9.95
2023-02-23T13:17:11.708Z,10.01
2023-02-23T13:20:33.725Z,10.20
2023-02-23T13:23:57.873Z,10.27
2023-02-23T13:27:19.508Z,10.35
2023-02-23T13:30:25.439Z,10.25
2023-02-23T13:33:43.646Z,10.35
2023-02-23T13:36:52.390Z,10.53
2023-02-23T13:40:22.117Z,10.75
2023-02-23T13:43:37.633Z,10.95
2023-02-23T13:46:57.657Z,11.04
2023-02-23T13:50:19.350Z,11.05
2023-02-23T13:53:41.454Z,10.91
2023-02-23T13:56:57.071Z,10.72
2023-02-23T14:00:05.084Z,10.73
2023-02-23T14:03:34.240Z,10.75
2023-02-23T14:06:43.231Z,10.54
2023-02-23T14:10:01.677Z,10.50
2023-02-23T14:13:31.767Z,10.48
2023-02-23T14:16:37.756Z,10.61
2023-02-23T14:19:46.857Z,10.73
2023-02-23T14:23:33.356Z,10.72
2023-02-23T14:26:48.416Z,10.75
2023-02-23T14:30:25.611Z,10.65
2023-02-23T14:34:03.599Z,10.38
2023-02-23T14:37:25.283Z,10.22
2023-02-23T14:40:38.005Z,10.29
2023-02-23T14:43:48.641Z,10.37
2023-02-23T14:47:07.259Z,10.44
2023-02-23T14:50:25.803Z,10.41
2023-02-23T14:53:32.434Z,10.47
2023-02-23T14:56:48.338Z,10.35
2023-02-23T15:00:05.998Z,10.09
2023-02-23T15:03:22.595Z,9.99
2023-02-23T15:06:29.382Z,9.86
2023-02-23T15:09:44.021Z,9.76
2023-02-23T15:12:52.138Z,9.69
2023-02-23T15:16:01.880Z,9.50
2023-02-23T15:19:11.431Z,9.46
2023-02-23T15:22:30.003Z,9.45
2023-02-23T15:25:40.689Z,9.49
2023-02-23T15:28:49.100Z,9.50
2023-02-23T15:31:58.630Z,9.53
2023-02-23T15:35:12.078Z,9.39
2023-02-23T15:38:42.355Z,9.20
2023-02-23T15:41:52.832Z,9.03
2023-02-23T15:45:05.056Z,8.89
2023-02-23T15:48:21.095Z,8.79
2023-02-23T15:51:40.610Z,8.79
2023-02-23T15:55:00.507Z,8.77
2023-02-23T15:58:21.717Z,8.74
2023-02-23T16:01:30.700Z,8.68
2023-02-23T16:04:44.503Z,8.63
2023-02-23T16:08:07.205Z,8.56
2023-02-23T16:11:19.965Z,8.55
2023-02-23T16:14:30.632Z,8.39
2023-02-23T16:17:48.533Z,8.25
2023-02-23T16:20:58.879Z,8.18
2023-02-23T16:24:22.358Z,8.21
2023-02-23T16:27:32.751Z,8.23
2023-02-23T16:30:45.924Z,8.16
2023-02-23T16:33:58.844Z,8.07
2023-02-23T16:37:18.481Z,8.04
2023-02-23T16:40:27.616Z,7.92
2023-02-23T16:43:37.214Z,7.90
2023-02-23T16:47:01.665Z,7.90
2023-02-23T16:50:21.220Z,7.93
2023-02-23T16:53:27.500Z,7.89
2023-02-23T16:56:37.554Z,7.86
2023-02-23T16:59:43.746Z,7.88
2023-02-23T17:02:50.572Z,7.86
2023-02-23T17:05:57.580Z,7.89
2023-02-23T17:09:04.586Z,7.87
2023-02-23T17:12:18.507Z,7.82
2023-02-23T17:15:29.339Z,7.77
2023-02-23T17:18:43.116Z,7.73
2023-02-23T17:21:50.133Z,7.77
2023-02-23T17:24:55.942Z,7.75
2023-02-23T17:28:05.826Z,7.68
2023-02-23T17:31:12.084Z,7.57
2023-02-23T17:34:18.812Z,7.65
2023-02-23T17:37:25.180Z,7.58
2023-02-23T17:40:36.512Z,7.70
2023-02-23T17:43:45.219Z,7.66
2023-02-23T17:46:51.945Z,7.64
2023-02-23T17:49:57.855Z,7.68
2023-02-23T17:53:04.387Z,7.71
2023-02-23T17:56:11.943Z,7.66
2023-02-23T17:59:21.142Z,7.62
2023-02-23T18:02:27.910Z,7.68
2023-02-23T18:05:34.829Z,7.64
2023-02-23T18:08:43.986Z,7.66
2023-02-23T18:11:50.575Z,7.58
2023-02-23T18:15:01.798Z,7.55
2023-02-23T18:18:08.509Z,7.58
2023-02-23T18:21:19.298Z,7.55
2023-02-23T18:24:27.467Z,7.60
2023-02-23T18:27:33.534Z,7.59
2023-02-23T18:30:43.744Z,7.54
2023-02-23T18:33:53.112Z,7.47
2023-02-23T18:37:03.760Z,7.42
2023-02-23T18:40:21.625Z,7.38
2023-02-23T18:43:28.496Z,7.42
2023-02-23T18:46:37.779Z,7.41
2023-02-23T18:49:44.371Z,7.41
2023-02-23T18:52:53.216Z,7.40
2023-02-23T18:56:08.941Z,7.52
2023-02-23T18:59:15.554Z,7.55
2023-02-23T19:02:25.443Z,7.52
2023-02-23T19:05:31.584Z,7.46
2023-02-23T19:08:38.361Z,7.38
2023-02-23T19:11:46.509Z,7.39
2023-02-23T19:14:54.388Z,7.43
2023-02-23T19:18:02.860Z,7.48
2023-02-23T19:21:09.939Z,7.55
2023-02-23T19:24:16.174Z,7.62
2023-02-23T19:27:23.660Z,7.70
2023-02-23T19:30:29.644Z,7.77
2023-02-23T19:33:41.181Z,7.88
2023-02-23T19:36:47.218Z,7.97
2023-02-23T19:39:54.145Z,8.06
2023-02-23T19:43:00.649Z,8.04
2023-02-23T19:46:08.248Z,8.09
2023-02-23T19:49:16.709Z,8.12
2023-02-23T19:52:24.899Z,8.16
2023-02-23T19:55:31.155Z,8.22
2023-02-23T19:58:38.957Z,8.28
2023-02-23T20:01:45.988Z,8.28
2023-02-23T20:04:55.297Z,8.28
2023-02-23T20:08:01.266Z,8.28
2023-02-23T20:11:09.860Z,8.26
2023-02-23T20:14:15.731Z,8.31
2023-02-23T20:17:23.888Z,8.21
2023-02-23T20:20:32.296Z,8.24
2023-02-23T20:23:39.016Z,8.31
2023-02-23T20:26:45.432Z,8.39
2023-02-23T20:29:53.892Z,8.41
2023-02-23T20:33:00.557Z,8.39
2023-02-23T20:36:12.264Z,8.27
2023-02-23T20:39:19.271Z,8.31
2023-02-23T20:42:28.542Z,8.32
2023-02-23T20:45:34.695Z,8.41
2023-02-23T20:48:41.391Z,8.48
2023-02-23T20:51:51.987Z,8.55
2023-02-23T20:54:59.374Z,8.61
2023-02-23T20:58:06.033Z,8.67
2023-02-23T21:01:19.343Z,8.77
2023-02-23T21:04:26.822Z,8.78
2023-02-23T21:07:36.106Z,8.73
2023-02-23T21:10:43.362Z,8.62
2023-02-23T21:13:50.347Z,8.68
2023-02-23T21:16:56.098Z,8.76
2023-02-23T21:20:02.662Z,8.73
2023-02-23T21:23:11.203Z,8.77
2023-02-23T21:26:21.814Z,8.82
2023-02-23T21:29:28.136Z,8.92
2023-02-23T21:32:41.452Z,9.06
2023-02-23T21:35:47.400Z,9.14
2023-02-23T21:38:56.750Z,9.23
2023-02-23T21:42:04.346Z,9.29
2023-02-23T21:45:14.085Z,9.18
2023-02-23T21:48:22.767Z,9.16
2023-02-23T21:51:30.695Z,9.15
2023-02-23T21:54:39.764Z,9.15
2023-02-23T21:57:47.996Z,9.02
2023-02-23T22:00:53.837Z,8.97
2023-02-23T22:04:01.464Z,8.95
2023-02-23T22:07:08.295Z,8.93
2023-02-23T22:10:17.838Z,8.77
2023-02-23T22:13:23.570Z,8.61
2023-02-23T22:16:33.446Z,8.46
2023-02-23T22:19:39.155Z,8.51
2023-02-23T22:22:45.783Z,8.43
2023-02-23T22:25:54.132Z,8.39
2023-02-23T22:29:00.794Z,8.37
2023-02-23T22:32:06.720Z,8.43
2023-02-23T22:35:14.709Z,8.47
2023-02-23T22:38:21.996Z,8.62
2023-02-23T22:41:32.076Z,8.65
2023-02-23T22:44:41.541Z,8.60
2023-02-23T22:47:48.337Z,8.55
2023-02-23T22:50:54.665Z,8.60
2023-02-23T22:54:01.269Z,8.67
2023-02-23T22:57:09.914Z,8.73
2023-02-23T23:00:21.364Z,8.74
2023-02-23T23:03:27.632Z,8.73
2023-02-23T23:06:34.476Z,8.70
2023-02-23T23:09:40.266Z,8.67
2023-02-23T23:12:49.670Z,8.69
2023-02-23T23:16:07.474Z,8.71
2023-02-23T23:19:16.233Z,8.75
2023-02-23T23:22:22.092Z,8.72
2023-02-23T23:25:29.702Z,8.67
2023-02-23T23:28:40.732Z,8.62
2023-02-23T23:31:48.078Z,8.63
2023-02-23T23:34:57.492Z,8.58
2023-02-23T23:38:06.289Z,8.57
2023-02-23T23:41:14.309Z,8.55
2023-02-23T23:44:29.435Z,8.57
2023-02-23T23:47:35.487Z,8.51
2023-02-23T23:50:42.484Z,8.53
2023-02-23T23:53:48.253Z,8.53
2023-02-23T23:56:55.295Z,8.54
